Time;durP1;ratioP1;P1;durP2;ratioP2;P2;SDS_P1;SDS_P2;PMS_P1;PMS_P2;Temp;Humidity;BMP_temperature;BMP_pressure;BME280_temperature;BME280_humidity;BME280_pressure;Samples;Min_cycle;Max_cycle;Signal;HPM_P1;HPM_P2
2022/12/20 00:01:07;;;;;;;2.88;1.33;;;8.00;96.10;;;;;;5044626;28;20101;-72
2022/12/20 00:03:32;;;;;;;4.10;1.52;;;7.70;96.70;;;;;;5047340;28;20069;-73
2022/12/20 00:05:58;;;;;;;4.18;1.70;;;7.10;97.60;;;;;;5066601;28;20105;-72
2022/12/20 00:08:24;;;;;;;3.70;1.70;;;6.80;98.00;;;;;;5070978;28;20028;-72
2022/12/20 00:10:49;;;;;;;3.40;1.30;;;6.60;98.00;;;;;;5073642;28;20024;-72
2022/12/20 00:13:15;;;;;;;4.38;1.40;;;6.40;98.00;;;;;;5062460;28;20032;-72
2022/12/20 00:15:40;;;;;;;4.05;1.40;;;6.40;98.00;;;;;;5065776;28;20029;-72
2022/12/20 00:18:06;;;;;;;2.95;1.25;;;6.40;98.00;;;;;;5060575;28;20016;-72
2022/12/20 00:20:32;;;;;;;3.30;1.27;;;6.40;98.00;;;;;;5066100;28;20380;-72
2022/12/20 00:22:57;;;;;;;7.82;2.90;;;6.70;98.00;;;;;;5067220;28;20028;-73
2022/12/20 00:25:23;;;;;;;2.92;1.30;;;6.90;98.00;;;;;;5061633;28;20035;-72
2022/12/20 00:27:49;;;;;;;2.63;1.50;;;7.00;98.00;;;;;;5066005;28;20451;-72
2022/12/20 00:30:15;;;;;;;4.10;1.55;;;7.00;98.00;;;;;;5063350;28;20302;-72
2022/12/20 00:32:41;;;;;;;4.72;1.38;;;7.30;98.00;;;;;;5063459;28;20028;-72
2022/12/20 00:35:08;;;;;;;4.50;1.73;;;7.40;98.00;;;;;;5069814;28;20050;-72
2022/12/20 00:37:34;;;;;;;2.75;1.33;;;7.50;98.00;;;;;;5061766;28;20024;-73
2022/12/20 00:39:59;;;;;;;4.47;1.50;;;7.60;98.00;;;;;;5065548;28;20029;-73
2022/12/20 00:42:25;;;;;;;2.00;1.10;;;7.60;98.00;;;;;;5045095;28;20356;-73
2022/12/20 00:44:50;;;;;;;2.83;1.33;;;7.60;98.00;;;;;;5069048;28;20056;-72
2022/12/20 00:47:16;;;;;;;2.65;1.40;;;7.40;98.00;;;;;;5058890;28;20029;-72
2022/12/20 00:49:42;;;;;;;3.45;1.48;;;7.10;98.00;;;;;;5066942;28;20032;-72
2022/12/20 00:52:07;;;;;;;3.35;1.50;;;6.70;98.00;;;;;;5060987;28;20039;-72
2022/12/20 00:54:33;;;;;;;3.30;1.60;;;6.40;98.00;;;;;;5069337;28;20055;-72
2022/12/20 00:56:59;;;;;;;3.28;1.45;;;6.20;98.00;;;;;;5068140;28;20036;-73
2022/12/20 00:59:27;;;;;;;4.30;1.50;;;6.20;98.00;;;;;;5065981;28;20025;-73
2022/12/20 01:01:53;;;;;;;3.38;1.70;;;6.00;98.00;;;;;;5043674;28;20035;-73
2022/12/20 01:04:18;;;;;;;2.90;1.40;;;5.90;98.00;;;;;;5069500;28;20029;-73
2022/12/20 01:06:44;;;;;;;3.08;1.48;;;6.00;98.00;;;;;;5067295;28;20036;-72
2022/12/20 01:09:10;;;;;;;3.58;1.77;;;6.20;98.00;;;;;;5067549;28;20075;-72
2022/12/20 01:11:37;;;;;;;4.68;1.80;;;6.40;98.00;;;;;;5052612;28;20062;-72
2022/12/20 01:14:14;;;;;;;3.00;1.50;;;6.40;98.00;;;;;;5047633;28;20111;-73
2022/12/20 01:16:42;;;;;;;3.65;1.60;;;6.20;98.00;;;;;;5066431;28;20035;-72
2022/12/20 01:19:10;;;;;;;5.03;1.65;;;6.10;98.00;;;;;;5068226;28;20020;-72
2022/12/20 01:21:37;;;;;;;5.22;2.15;;;6.20;98.00;;;;;;5044978;28;20024;-72
2022/12/20 01:24:05;;;;;;;3.72;1.77;;;6.30;98.00;;;;;;5057230;28;20047;-73
2022/12/20 01:26:31;;;;;;;5.68;2.10;;;6.30;98.00;;;;;;5060812;28;20118;-73
2022/12/20 01:28:59;;;;;;;6.28;3.00;;;6.30;98.00;;;;;;5064853;28;20062;-73
2022/12/20 01:31:26;;;;;;;5.65;3.25;;;6.30;98.00;;;;;;5062122;28;20021;-72
2022/12/20 01:33:52;;;;;;;5.82;3.10;;;6.20;98.00;;;;;;5066762;28;20028;-71
2022/12/20 01:36:20;;;;;;;6.45;3.17;;;6.10;98.00;;;;;;5066549;28;20031;-73
2022/12/20 01:38:46;;;;;;;6.38;3.40;;;6.10;98.00;;;;;;5068778;28;20056;-73
2022/12/20 01:41:19;;;;;;;7.70;3.65;;;6.10;98.00;;;;;;5067432;28;20479;-72
2022/12/20 01:43:49;;;;;;;8.68;4.13;;;5.90;98.00;;;;;;5035600;28;20036;-72
2022/12/20 01:46:16;;;;;;;9.13;4.32;;;5.80;98.00;;;;;;5059740;28;20098;-73
2022/12/20 01:48:47;;;;;;;7.93;4.97;;;5.70;98.00;;;;;;5062003;28;20036;-73
2022/12/20 01:51:13;;;;;;;9.82;5.18;;;5.60;98.00;;;;;;5068689;28;20024;-73
2022/12/20 01:53:39;;;;;;;9.85;5.50;;;5.40;98.00;;;;;;5064799;28;20414;-73
2022/12/20 01:56:06;;;;;;;9.32;5.32;;;5.40;98.00;;;;;;5064449;28;20021;-72
2022/12/20 01:58:35;;;;;;;9.30;5.40;;;5.40;98.00;;;;;;5063131;28;20016;-73
2022/12/20 02:01:03;;;;;;;10.90;5.78;;;5.40;98.00;;;;;;5063740;28;20029;-72
2022/12/20 02:03:31;;;;;;;9.75;5.80;;;5.40;98.00;;;;;;5049002;28;20027;-73
2022/12/20 02:05:56;;;;;;;10.60;6.13;;;5.40;98.00;;;;;;5066216;28;20308;-73
2022/12/20 02:08:22;;;;;;;10.98;6.07;;;5.30;98.00;;;;;;5070505;28;20037;-73
2022/12/20 02:11:06;;;;;;;10.95;6.70;;;5.30;98.00;;;;;;5059248;28;20120;-73
2022/12/20 02:13:50;;;;;;;10.82;7.00;;;5.30;98.00;;;;;;5058218;28;20465;-73
2022/12/20 02:16:24;;;;;;;9.63;6.20;;;5.30;98.00;;;;;;5057428;28;20024;-73
2022/12/20 02:19:12;;;;;;;;;;;5.30;98.00;;;;;;5064171;28;20043;-73
2022/12/20 02:21:44;;;;;;;10.57;5.85;;;5.30;98.00;;;;;;5051022;28;19954;-73
2022/12/20 02:24:40;;;;;;;7.38;4.47;;;5.30;98.00;;;;;;5071911;28;20029;-73
2022/12/20 02:27:06;;;;;;;7.20;3.95;;;5.50;98.00;;;;;;5061645;28;20090;-73
2022/12/20 02:30:07;;;;;;;7.65;4.60;;;5.90;98.00;;;;;;5071738;28;20037;-74
2022/12/20 02:32:37;;;;;;;7.30;4.10;;;6.10;98.00;;;;;;5035340;28;20504;-73
2022/12/20 02:35:06;;;;;;;8.25;3.97;;;6.20;98.00;;;;;;5064414;28;20025;-73
2022/12/20 02:37:32;;;;;;;9.77;4.90;;;6.30;98.00;;;;;;5065584;28;20388;-74
2022/12/20 02:39:57;;;;;;;7.38;3.95;;;6.40;98.00;;;;;;5067842;28;20044;-73
2022/12/20 02:42:25;;;;;;;7.40;3.40;;;6.50;98.00;;;;;;5069816;28;20024;-73
2022/12/20 02:45:14;;;;;;;5.40;2.78;;;6.60;98.00;;;;;;5046347;28;20143;-73
2022/12/20 02:47:51;;;;;;;7.45;3.25;;;6.90;98.00;;;;;;5048896;28;20056;-73
2022/12/20 02:50:29;;;;;;;6.25;2.95;;;7.20;98.00;;;;;;5072364;28;20020;-73
2022/12/20 02:52:56;;;;;;;5.78;2.85;;;7.40;98.00;;;;;;5069089;28;20052;-73
2022/12/20 02:55:40;;;;;;;5.43;2.70;;;7.60;97.60;;;;;;5067508;28;20025;-73
2022/12/20 02:58:15;;;;;;;3.97;2.20;;;7.60;97.30;;;;;;5067140;28;20021;-74
2022/12/20 03:00:45;;;;;;;3.92;1.70;;;7.60;97.20;;;;;;5062114;28;20041;-74
2022/12/20 03:03:24;;;;;;;5.20;2.58;;;7.80;97.00;;;;;;5070750;28;20435;-73
2022/12/20 03:05:53;;;;;;;6.20;2.30;;;8.10;95.90;;;;;;5071444;28;20167;-73
2022/12/20 03:08:20;;;;;;;6.32;3.40;;;8.20;95.40;;;;;;5062826;28;20033;-73
2022/12/20 03:10:49;;;;;;;5.60;3.17;;;7.90;95.30;;;;;;5064537;28;20405;-74
2022/12/20 03:13:15;;;;;;;7.18;3.45;;;7.50;96.20;;;;;;5042482;28;20084;-73
2022/12/20 03:15:40;;;;;;;6.93;2.72;;;7.20;96.90;;;;;;5063288;28;20048;-74
2022/12/20 03:18:06;;;;;;;8.73;3.78;;;7.10;97.80;;;;;;5057954;28;20099;-74
2022/12/20 03:20:32;;;;;;;7.00;2.88;;;7.10;97.80;;;;;;5044800;28;20032;-74
2022/12/20 03:22:58;;;;;;;5.05;2.58;;;7.00;98.00;;;;;;5069131;28;20077;-74
2022/12/20 03:25:24;;;;;;;4.90;2.80;;;7.20;98.00;;;;;;5069297;28;20025;-74
2022/12/20 03:27:50;;;;;;;5.43;2.78;;;7.20;97.60;;;;;;5063513;28;20037;-74
2022/12/20 03:30:15;;;;;;;6.13;2.72;;;7.30;97.60;;;;;;5072596;28;20150;-74
2022/12/20 03:32:41;;;;;;;4.47;2.17;;;7.30;97.50;;;;;;5074437;28;20025;-73
2022/12/20 03:35:07;;;;;;;5.25;2.70;;;7.30;97.50;;;;;;5076459;28;20032;-75
2022/12/20 03:37:32;;;;;;;5.05;2.45;;;7.40;97.00;;;;;;5075220;28;20029;-75
2022/12/20 03:39:58;;;;;;;3.10;1.80;;;7.30;97.10;;;;;;5044926;28;20024;-74
2022/12/20 03:42:24;;;;;;;4.82;2.30;;;7.40;97.00;;;;;;5045770;28;20329;-74
2022/12/20 03:44:49;;;;;;;5.43;2.70;;;7.40;96.90;;;;;;5063396;28;20079;-74
2022/12/20 03:47:15;;;;;;;5.18;2.90;;;7.30;96.90;;;;;;5035333;28;20348;-74
2022/12/20 03:49:40;;;;;;;6.28;2.78;;;7.10;97.10;;;;;;5062874;28;20035;-75
2022/12/20 03:52:06;;;;;;;7.07;3.67;;;7.30;97.20;;;;;;5070787;28;20064;-74
2022/12/20 03:54:32;;;;;;;8.57;3.90;;;7.40;96.70;;;;;;5056905;28;20302;-74
2022/12/20 03:56:57;;;;;;;4.90;2.90;;;7.30;96.50;;;;;;5066271;28;20075;-74
2022/12/20 03:59:23;;;;;;;4.35;2.38;;;7.20;97.00;;;;;;5060797;28;21928;-73
2022/12/20 04:01:48;;;;;;;6.07;2.70;;;7.40;97.10;;;;;;5062637;28;20043;-74
2022/12/20 04:04:15;;;;;;;6.82;2.70;;;7.60;96.10;;;;;;5062169;28;20060;-74
2022/12/20 04:06:41;;;;;;;5.43;2.40;;;7.80;95.30;;;;;;5065805;28;20029;-75
2022/12/20 04:09:06;;;;;;;4.82;2.35;;;7.90;94.90;;;;;;5061395;28;20036;-75
2022/12/20 04:11:32;;;;;;;4.68;2.28;;;8.10;94.20;;;;;;5049017;28;20030;-74
2022/12/20 04:13:58;;;;;;;5.78;2.65;;;8.20;94.00;;;;;;5063476;28;20021;-75
2022/12/20 04:16:26;;;;;;;7.65;3.20;;;8.20;93.90;;;;;;5062194;28;20024;-75
2022/12/20 04:18:52;;;;;;;5.85;3.20;;;8.20;93.60;;;;;;5068441;28;20095;-74
2022/12/20 04:21:22;;;;;;;6.00;3.08;;;8.10;93.90;;;;;;5068405;28;20154;-74
2022/12/20 04:23:48;;;;;;;4.85;2.58;;;8.00;94.40;;;;;;5056500;28;20402;-75
2022/12/20 04:26:13;;;;;;;5.47;2.65;;;8.10;94.20;;;;;;5069778;28;20130;-75
2022/12/20 04:28:39;;;;;;;6.55;2.70;;;8.20;94.00;;;;;;5069875;28;20386;-75
2022/12/20 04:31:05;;;;;;;6.30;2.75;;;8.20;94.00;;;;;;5074358;28;20028;-75
2022/12/20 04:33:30;;;;;;;5.57;2.85;;;8.10;94.20;;;;;;5070592;28;20033;-75
2022/12/20 04:35:56;;;;;;;5.50;2.72;;;8.10;94.30;;;;;;5069239;28;20024;-75
2022/12/20 04:38:22;;;;;;;5.47;2.53;;;8.20;94.10;;;;;;5036658;28;21725;-74
2022/12/20 04:40:49;;;;;;;5.60;2.90;;;8.20;94.00;;;;;;5048826;28;20033;-74
2022/12/20 04:43:16;;;;;;;6.80;2.97;;;8.20;93.90;;;;;;5051117;28;20112;-74
2022/12/20 04:45:43;;;;;;;5.97;2.63;;;8.10;94.20;;;;;;5068047;28;20060;-74
2022/12/20 04:48:09;;;;;;;5.80;2.65;;;8.10;94.10;;;;;;5070308;28;20158;-74
2022/12/20 04:50:34;;;;;;;5.35;2.45;;;8.20;94.00;;;;;;5051404;28;20043;-75
2022/12/20 04:55:44;;;;;;;4.93;2.63;;;8.20;94.10;;;;;;5066874;28;20168;-76
2022/12/20 04:58:11;;;;;;;5.10;2.60;;;8.20;93.90;;;;;;5062738;28;20032;-75
2022/12/20 05:00:36;;;;;;;4.95;2.40;;;8.20;94.20;;;;;;5065484;28;20037;-74
2022/12/20 05:03:02;;;;;;;4.57;2.20;;;8.50;93.60;;;;;;5048504;28;20039;-75
2022/12/20 05:05:28;;;;;;;6.15;2.85;;;8.50;93.70;;;;;;5053800;28;20443;-75
2022/12/20 05:07:55;;;;;;;5.30;2.22;;;8.40;93.80;;;;;;5048654;28;20036;-75
2022/12/20 05:10:20;;;;;;;6.00;2.50;;;8.30;94.10;;;;;;5071975;28;20025;-75
2022/12/20 05:12:46;;;;;;;8.50;2.92;;;8.30;94.50;;;;;;5069433;28;20325;-75
2022/12/20 05:15:11;;;;;;;5.22;2.70;;;8.20;94.40;;;;;;5072117;28;20016;-74
2022/12/20 05:17:37;;;;;;;5.85;2.75;;;8.20;94.50;;;;;;5071156;28;20029;-75
2022/12/20 05:20:04;;;;;;;4.60;2.50;;;8.20;94.90;;;;;;5067558;28;20032;-75
2022/12/20 05:27:58;;;;;;;5.50;2.45;;;8.30;94.60;;;;;;5068743;28;20082;-75
2022/12/20 05:30:24;;;;;;;5.47;3.20;;;8.30;94.30;;;;;;5066164;28;20052;-74
2022/12/20 05:32:50;;;;;;;5.75;3.05;;;8.30;94.10;;;;;;5071491;28;20154;-75
2022/12/20 05:35:16;;;;;;;5.90;2.90;;;8.30;94.20;;;;;;5070457;28;20130;-75
2022/12/20 05:37:42;;;;;;;5.43;3.03;;;8.30;94.20;;;;;;5071969;28;20116;-75
2022/12/20 05:40:08;;;;;;;6.18;2.97;;;8.40;94.00;;;;;;5070263;28;20155;-76
2022/12/20 05:42:34;;;;;;;6.95;3.35;;;8.30;94.00;;;;;;5069040;28;20032;-75
2022/12/20 05:45:00;;;;;;;9.88;4.20;;;8.30;94.10;;;;;;5068937;28;20047;-75
2022/12/20 05:47:26;;;;;;;9.68;5.00;;;8.30;93.80;;;;;;5068497;28;20024;-75
2022/12/20 05:49:52;;;;;;;11.65;6.10;;;8.30;94.10;;;;;;5068119;28;20017;-75
2022/12/20 05:52:17;;;;;;;13.52;7.05;;;8.30;94.30;;;;;;5067963;28;20037;-76
2022/12/20 05:54:43;;;;;;;10.23;6.22;;;8.20;94.30;;;;;;5069686;28;20107;-76
2022/12/20 05:57:09;;;;;;;8.85;5.45;;;8.20;94.60;;;;;;5073009;28;20021;-76
2022/12/20 05:59:34;;;;;;;8.32;4.85;;;8.10;94.70;;;;;;5073410;28;20067;-76
2022/12/20 06:02:00;;;;;;;8.48;3.75;;;8.00;95.00;;;;;;5073328;28;20362;-76
2022/12/20 06:04:25;;;;;;;8.00;4.00;;;8.00;94.90;;;;;;5076884;28;20032;-75
2022/12/20 06:06:51;;;;;;;7.10;3.60;;;8.00;94.90;;;;;;5055278;28;20071;-75
2022/12/20 06:09:17;;;;;;;6.80;3.70;;;7.90;94.90;;;;;;5071973;28;20322;-75
2022/12/20 06:11:43;;;;;;;8.57;3.63;;;8.00;95.10;;;;;;5070916;28;20028;-75
2022/12/20 06:14:08;;;;;;;6.68;3.45;;;8.00;94.90;;;;;;5072716;28;20809;-75
2022/12/20 06:16:35;;;;;;;9.10;4.30;;;8.10;94.80;;;;;;5071646;28;20039;-75
2022/12/20 06:19:01;;;;;;;7.60;4.13;;;8.00;94.70;;;;;;5057795;28;20017;-75
2022/12/20 06:21:27;;;;;;;7.63;4.32;;;8.10;94.40;;;;;;5043274;28;20040;-75
2022/12/20 06:23:53;;;;;;;7.55;3.90;;;8.00;94.20;;;;;;5072939;28;20029;-75
2022/12/20 06:26:21;;;;;;;8.02;4.65;;;8.00;94.30;;;;;;5073257;28;20021;-75
2022/12/20 06:28:53;;;;;;;8.60;3.60;;;7.90;94.40;;;;;;5072713;28;20139;-76
2022/12/20 06:31:18;;;;;;;6.57;3.63;;;7.90;94.50;;;;;;5074841;28;20032;-75
2022/12/20 06:33:44;;;;;;;5.53;3.10;;;8.10;94.10;;;;;;5074850;28;20031;-75
2022/12/20 06:36:10;;;;;;;5.35;2.95;;;8.10;94.10;;;;;;5070302;28;20074;-75
2022/12/20 06:38:35;;;;;;;6.07;2.70;;;8.20;93.70;;;;;;5073648;28;20416;-75
2022/12/20 06:41:01;;;;;;;8.23;4.68;;;8.40;93.20;;;;;;5074121;28;20020;-74
2022/12/20 06:43:27;;;;;;;10.50;5.50;;;8.30;93.30;;;;;;5067733;28;20024;-76
2022/12/20 06:45:52;;;;;;;19.55;9.07;;;8.20;93.30;;;;;;5069896;28;20751;-75
2022/12/20 06:48:20;;;;;;;17.58;9.48;;;7.80;93.80;;;;;;5076244;28;20025;-76
2022/12/20 06:50:47;;;;;;;7.18;3.42;;;7.40;94.80;;;;;;5072266;28;20031;-75
2022/12/20 06:53:13;;;;;;;11.25;7.20;;;7.30;96.60;;;;;;5071154;28;20426;-76
2022/12/20 06:55:38;;;;;;;7.22;4.50;;;7.40;95.70;;;;;;5074699;28;20051;-75
2022/12/20 06:58:04;;;;;;;5.30;2.55;;;7.10;96.20;;;;;;5069741;28;20025;-76
2022/12/20 07:00:30;;;;;;;5.00;2.90;;;7.40;96.90;;;;;;5049680;28;20413;-76
2022/12/20 07:02:55;;;;;;;5.05;2.78;;;7.70;95.90;;;;;;5066561;28;20108;-76
2022/12/20 07:05:21;;;;;;;4.97;2.58;;;7.90;95.40;;;;;;5062481;28;20058;-76
2022/12/20 07:07:47;;;;;;;6.72;2.97;;;8.10;94.80;;;;;;5073001;28;20074;-76
2022/12/20 07:10:13;;;;;;;6.47;3.13;;;8.30;93.90;;;;;;5072980;28;20400;-76
2022/12/20 07:12:39;;;;;;;5.65;2.90;;;8.40;93.60;;;;;;5070277;28;20060;-76
2022/12/20 07:15:06;;;;;;;7.22;3.22;;;8.40;93.60;;;;;;5076214;28;20392;-75
2022/12/20 07:17:32;;;;;;;6.75;3.42;;;8.40;93.30;;;;;;5054850;28;20037;-75
2022/12/20 07:19:57;;;;;;;4.75;2.67;;;8.40;93.20;;;;;;5073841;28;20024;-76
2022/12/20 07:22:23;;;;;;;6.55;3.28;;;8.40;93.30;;;;;;5064620;28;20056;-76
2022/12/20 07:24:49;;;;;;;7.45;3.47;;;8.50;93.10;;;;;;5072912;28;20116;-76
2022/12/20 07:27:15;;;;;;;6.45;3.55;;;8.40;93.10;;;;;;5058764;28;20032;-76
2022/12/20 07:29:41;;;;;;;12.57;7.50;;;8.40;93.30;;;;;;5072758;28;20111;-76
2022/12/20 07:32:07;;;;;;;13.40;8.65;;;8.10;92.40;;;;;;5051929;28;20135;-76
2022/12/20 07:34:32;;;;;;;13.43;8.35;;;7.70;93.90;;;;;;5068091;28;20027;-76
2022/12/20 07:36:58;;;;;;;13.45;7.47;;;7.30;95.10;;;;;;5071668;28;20016;-76
2022/12/20 07:39:24;;;;;;;12.60;8.00;;;6.80;96.10;;;;;;5066757;28;21564;-76
2022/12/20 07:41:54;;;;;;;13.48;8.48;;;6.60;97.20;;;;;;5073192;28;20033;-76
2022/12/20 07:44:20;;;;;;;16.00;9.95;;;6.50;97.90;;;;;;5065934;28;20071;-75
2022/12/20 07:46:45;;;;;;;16.67;10.27;;;6.30;98.00;;;;;;5073471;28;20032;-76
2022/12/20 07:49:11;;;;;;;16.52;11.07;;;6.30;98.00;;;;;;5070414;28;20032;-77
2022/12/20 07:51:58;;;;;;;17.30;10.13;;;6.10;98.00;;;;;;5059034;28;20028;-77
2022/12/20 07:54:40;;;;;;;14.23;9.13;;;6.00;98.00;;;;;;5075597;28;20413;-77
2022/12/20 07:57:20;;;;;;;17.42;9.27;;;5.80;98.00;;;;;;5076783;28;20032;-77
2022/12/20 07:59:53;;;;;;;17.02;9.88;;;5.70;98.00;;;;;;5070709;28;20021;-76
2022/12/20 08:02:27;;;;;;;472.70;215.07;;;5.80;98.00;;;;;;5065999;28;20112;-76
2022/12/20 08:04:54;;;;;;;470.77;223.35;;;5.70;98.00;;;;;;5077265;28;20401;-76
2022/12/20 08:07:22;;;;;;;79.78;42.50;;;5.70;98.00;;;;;;5074539;28;20329;-76
2022/12/20 08:09:48;;;;;;;38.15;22.00;;;5.80;98.00;;;;;;5072551;28;20367;-76
2022/12/20 08:12:17;;;;;;;23.80;14.77;;;6.00;98.00;;;;;;5076069;28;20028;-76
2022/12/20 08:14:43;;;;;;;36.05;19.67;;;6.20;98.00;;;;;;5074241;28;20413;-75
2022/12/20 08:17:10;;;;;;;27.33;14.95;;;6.10;98.00;;;;;;5076029;28;20128;-75
2022/12/20 08:19:35;;;;;;;26.33;15.90;;;6.00;98.00;;;;;;5074508;28;20012;-76
2022/12/20 08:22:01;;;;;;;25.05;14.00;;;6.00;98.00;;;;;;5058667;28;20051;-76
2022/12/20 08:24:27;;;;;;;25.13;14.98;;;6.00;98.00;;;;;;5057381;28;20484;-77
2022/12/20 08:26:52;;;;;;;24.23;13.93;;;6.10;98.00;;;;;;5075436;28;20452;-76
2022/12/20 08:29:18;;;;;;;22.40;13.55;;;6.10;98.00;;;;;;5074435;28;20059;-76
2022/12/20 08:31:43;;;;;;;19.77;10.93;;;6.00;98.00;;;;;;5058126;28;20413;-76
2022/12/20 08:34:09;;;;;;;15.23;9.20;;;6.00;98.00;;;;;;5075289;28;20235;-76
2022/12/20 08:36:35;;;;;;;14.40;8.35;;;6.10;98.00;;;;;;5057858;28;20032;-76
2022/12/20 08:39:03;;;;;;;7.85;4.93;;;6.30;98.00;;;;;;5057510;28;20072;-77
2022/12/20 08:41:29;;;;;;;9.05;3.30;;;6.50;98.00;;;;;;5070672;28;20091;-76
2022/12/20 08:43:55;;;;;;;8.10;3.05;;;7.00;98.00;;;;;;5070071;28;20076;-76
2022/12/20 08:46:21;;;;;;;5.35;2.58;;;7.50;98.00;;;;;;5057247;28;20067;-76
2022/12/20 08:48:46;;;;;;;5.85;2.42;;;7.90;97.50;;;;;;5076188;28;20355;-76
2022/12/20 08:51:12;;;;;;;5.28;2.90;;;8.20;96.30;;;;;;5069854;28;20029;-76
2022/12/20 08:53:38;;;;;;;4.95;2.85;;;8.30;95.50;;;;;;5071830;28;20070;-77
2022/12/20 08:56:09;;;;;;;5.15;2.65;;;8.50;95.00;;;;;;5056546;28;20081;-76
2022/12/20 08:58:35;;;;;;;5.18;2.50;;;8.60;94.70;;;;;;5073903;28;20429;-77
2022/12/20 09:01:07;;;;;;;16.45;9.10;;;8.70;93.90;;;;;;5075814;28;20032;-77
2022/12/20 09:03:34;;;;;;;10.60;6.65;;;8.90;93.50;;;;;;5039644;28;20028;-77
2022/12/20 09:06:03;;;;;;;6.30;3.13;;;9.00;93.00;;;;;;5075763;28;20459;-77
2022/12/20 09:08:29;;;;;;;5.32;2.83;;;9.10;92.60;;;;;;5072203;28;20047;-78
2022/12/20 09:11:06;;;;;;;5.38;2.75;;;9.20;92.10;;;;;;5067183;28;20476;-77
2022/12/20 09:13:32;;;;;;;4.55;2.03;;;9.40;91.40;;;;;;5068842;28;20158;-77
2022/12/20 09:16:03;;;;;;;7.70;3.30;;;9.40;91.40;;;;;;5055268;28;20430;-77
2022/12/20 09:18:29;;;;;;;21.90;10.20;;;9.40;91.30;;;;;;5074347;28;20062;-77
2022/12/20 09:20:55;;;;;;;25.13;13.93;;;9.10;91.30;;;;;;5062022;28;20111;-78
2022/12/20 09:23:20;;;;;;;21.40;13.23;;;8.40;92.50;;;;;;5060096;28;20031;-78
2022/12/20 09:25:46;;;;;;;27.80;14.07;;;8.10;94.40;;;;;;5074005;28;20033;-78
2022/12/20 09:28:12;;;;;;;24.42;12.73;;;8.00;95.30;;;;;;5072646;28;20426;-78
2022/12/20 09:30:37;;;;;;;22.83;13.02;;;7.90;96.00;;;;;;5075135;28;20071;-78
2022/12/20 09:33:03;;;;;;;33.72;19.65;;;8.20;96.20;;;;;;5073986;28;20452;-78
2022/12/20 09:35:29;;;;;;;9.10;5.25;;;8.60;95.40;;;;;;5057114;28;20051;-78
2022/12/20 09:37:54;;;;;;;7.90;2.72;;;9.10;94.30;;;;;;5075712;28;20020;-77
2022/12/20 09:40:23;;;;;;;6.30;2.45;;;9.60;92.50;;;;;;5074487;28;20047;-77
2022/12/20 09:42:49;;;;;;;4.53;1.98;;;10.30;90.00;;;;;;5074600;28;20060;-79
2022/12/20 09:45:26;;;;;;;4.47;1.85;;;11.10;87.30;;;;;;5073420;28;20505;-79
2022/12/20 09:47:52;;;;;;;4.60;1.92;;;11.40;86.40;;;;;;5055287;28;20035;-78
2022/12/20 09:50:20;;;;;;;4.63;2.33;;;11.50;85.70;;;;;;5057070;28;20024;-77
2022/12/20 09:52:57;;;;;;;17.48;8.68;;;11.60;86.50;;;;;;5074449;28;20025;-78
2022/12/20 09:55:31;;;;;;;6.43;2.45;;;11.60;85.60;;;;;;5073788;28;20020;-77
2022/12/20 09:58:14;;;;;;;4.32;2.10;;;11.30;86.40;;;;;;5057807;28;20021;-78
2022/12/20 10:00:46;;;;;;;3.80;2.00;;;11.20;85.80;;;;;;5053828;28;20043;-77
2022/12/20 10:03:43;;;;;;;6.38;2.30;;;11.20;85.80;;;;;;5045098;28;20025;-77
2022/12/20 10:06:28;;;;;;;4.78;2.25;;;11.30;85.60;;;;;;5052735;28;20071;-77
2022/12/20 10:09:00;;;;;;;5.15;2.20;;;11.30;85.30;;;;;;5075319;28;20048;-77
2022/12/20 10:12:00;;;;;;;4.75;2.22;;;11.20;85.70;;;;;;5055551;28;20032;-76
2022/12/20 10:14:50;;;;;;;6.05;2.05;;;11.10;86.20;;;;;;5056436;28;20021;-76
2022/12/20 10:17:32;;;;;;;6.25;2.58;;;11.10;85.60;;;;;;5073742;28;20043;-76
2022/12/20 10:20:19;;;;;;;26.52;12.75;;;11.00;85.70;;;;;;5057297;28;20135;-76
2022/12/20 10:23:10;;;;;;;12.93;5.75;;;10.90;86.10;;;;;;5037410;28;20036;-76
2022/12/20 10:25:36;;;;;;;19.48;11.98;;;10.90;86.20;;;;;;5058315;28;20020;-75
2022/12/20 10:28:08;;;;;;;6.13;3.47;;;10.90;86.40;;;;;;5075192;28;20025;-74
2022/12/20 10:30:34;;;;;;;5.50;3.50;;;10.90;86.00;;;;;;5073591;28;20032;-74
2022/12/20 10:33:00;;;;;;;54.92;25.58;;;10.80;85.80;;;;;;5057376;28;20024;-74
2022/12/20 10:35:30;;;;;;;57.97;26.67;;;10.60;87.30;;;;;;5056391;28;20580;-74
2022/12/20 10:37:58;;;;;;;26.33;14.32;;;10.10;88.50;;;;;;5074440;28;20017;-74
2022/12/20 10:40:30;;;;;;;13.20;8.02;;;9.60;90.40;;;;;;5074509;28;20075;-75
2022/12/20 10:42:57;;;;;;;21.48;12.07;;;9.40;91.00;;;;;;5058341;28;20115;-76
2022/12/20 10:45:22;;;;;;;12.75;7.28;;;9.10;92.60;;;;;;5076368;28;20324;-77
2022/12/20 10:47:50;;;;;;;7.32;3.25;;;8.90;93.10;;;;;;5060863;28;20127;-75
2022/12/20 10:50:21;;;;;;;4.85;2.40;;;9.10;92.40;;;;;;5077828;28;20052;-75
2022/12/20 10:53:19;;;;;;;5.53;2.72;;;9.40;90.80;;;;;;5062191;28;20082;-75
2022/12/20 10:55:45;;;;;;;5.82;2.30;;;9.90;89.30;;;;;;5077827;28;20024;-76
2022/12/20 10:58:26;;;;;;;8.35;2.50;;;10.10;88.40;;;;;;5059677;28;20028;-76
2022/12/20 11:01:11;;;;;;;26.85;13.50;;;10.20;87.80;;;;;;5077203;28;20023;-75
2022/12/20 11:03:56;;;;;;;23.23;12.95;;;10.00;89.50;;;;;;5078254;28;20020;-75
2022/12/20 11:06:48;;;;;;;10.75;5.32;;;9.50;91.20;;;;;;5076488;28;20043;-74
2022/12/20 11:09:24;;;;;;;44.85;24.45;;;9.40;90.50;;;;;;5066198;28;20059;-74
2022/12/20 11:12:16;;;;;;;37.50;19.75;;;9.20;91.80;;;;;;5075730;28;20029;-74
2022/12/20 11:14:46;;;;;;;40.53;22.23;;;8.90;92.80;;;;;;5073019;28;20078;-75
2022/12/20 11:17:32;;;;;;;48.45;24.73;;;8.70;93.70;;;;;;5076996;28;20085;-74
2022/12/20 11:20:20;;;;;;;25.50;14.82;;;8.60;94.40;;;;;;5077394;28;20039;-74
2022/12/20 11:23:09;;;;;;;28.38;14.77;;;8.40;94.90;;;;;;5074731;28;20028;-74
2022/12/20 11:26:09;;;;;;;28.63;15.50;;;8.40;95.60;;;;;;5078030;28;20073;-74
2022/12/20 11:28:46;;;;;;;21.33;11.65;;;8.50;95.40;;;;;;5076107;28;20479;-74
2022/12/20 11:31:21;;;;;;;18.65;11.10;;;8.40;95.30;;;;;;5077523;28;20055;-74
2022/12/20 11:34:03;;;;;;;24.38;14.50;;;8.50;95.80;;;;;;5060044;28;20067;-74
2022/12/20 11:36:52;;;;;;;42.20;24.13;;;8.60;95.80;;;;;;5060077;28;20020;-74
2022/12/20 11:39:39;;;;;;;30.02;16.58;;;8.80;95.50;;;;;;5077442;28;20025;-74
2022/12/20 11:42:17;;;;;;;31.02;14.98;;;8.80;95.00;;;;;;5076823;28;20072;-74
2022/12/20 11:44:52;;;;;;;76.53;38.05;;;8.80;95.30;;;;;;5076193;28;20056;-74
2022/12/20 11:47:20;;;;;;;27.70;15.75;;;8.70;95.40;;;;;;5059860;28;20048;-74
2022/12/20 11:50:18;;;;;;;40.00;24.88;;;8.70;95.00;;;;;;5077195;28;20104;-74
2022/12/20 11:52:49;;;;;;;27.48;13.85;;;8.60;95.70;;;;;;5077145;28;20036;-75
2022/12/20 11:55:24;;;;;;;25.33;13.85;;;8.40;95.80;;;;;;5038938;28;20075;-75
2022/12/20 11:58:08;;;;;;;20.42;11.23;;;8.30;96.30;;;;;;5076723;28;20486;-75
2022/12/20 12:00:35;;;;;;;20.52;11.45;;;8.20;96.80;;;;;;5076643;28;20024;-74
2022/12/20 12:03:10;;;;;;;18.98;10.52;;;8.30;97.00;;;;;;5059447;28;20016;-75
2022/12/20 12:05:46;;;;;;;22.35;11.73;;;8.20;96.90;;;;;;5059438;28;20032;-74
2022/12/20 12:08:22;;;;;;;18.63;9.75;;;8.30;96.80;;;;;;5059435;28;20417;-74
2022/12/20 12:11:00;;;;;;;37.53;21.35;;;8.40;97.00;;;;;;5058289;28;20032;-74
2022/12/20 12:13:29;;;;;;;21.52;13.40;;;8.50;97.20;;;;;;5075933;28;20032;-74
2022/12/20 12:16:10;;;;;;;10.23;5.88;;;8.90;96.40;;;;;;5059187;28;20081;-74
2022/12/20 12:18:39;;;;;;;7.68;5.03;;;9.80;93.60;;;;;;5076844;28;20052;-74
2022/12/20 12:21:39;;;;;;;8.35;3.88;;;10.90;90.50;;;;;;5076732;28;20039;-74
2022/12/20 12:24:24;;;;;;;33.50;16.77;;;11.90;87.70;;;;;;5076806;28;20093;-75
2022/12/20 12:26:51;;;;;;;42.42;22.58;;;12.30;86.20;;;;;;5058438;28;20036;-74
2022/12/20 12:29:19;;;;;;;50.53;22.45;;;12.30;86.40;;;;;;5075310;28;20024;-74
2022/12/20 12:31:54;;;;;;;20.08;9.55;;;12.00;86.20;;;;;;5071251;28;20056;-74
2022/12/20 12:34:36;;;;;;;27.83;14.90;;;11.10;87.40;;;;;;5057326;28;20032;-74
2022/12/20 12:37:33;;;;;;;25.27;14.25;;;10.50;89.50;;;;;;5056421;28;20078;-74
2022/12/20 12:40:23;;;;;;;37.20;18.30;;;10.30;90.50;;;;;;5060327;28;20032;-74
2022/12/20 12:42:55;;;;;;;36.85;18.80;;;10.20;90.60;;;;;;5058660;28;20032;-74
2022/12/20 12:45:37;;;;;;;44.17;21.83;;;10.10;90.80;;;;;;5074966;28;20044;-73
2022/12/20 12:48:33;;;;;;;42.13;21.60;;;10.00;91.60;;;;;;5076173;28;20040;-74
2022/12/20 12:51:01;;;;;;;26.85;15.68;;;10.00;92.20;;;;;;5058598;28;20052;-74
2022/12/20 12:53:47;;;;;;;21.95;13.00;;;10.10;92.40;;;;;;5058425;28;20024;-74
2022/12/20 12:56:25;;;;;;;28.02;17.00;;;10.00;92.10;;;;;;5075494;28;20025;-73
2022/12/20 12:59:18;;;;;;;28.33;15.35;;;9.90;93.00;;;;;;5074998;28;20030;-74
2022/12/20 13:02:14;;;;;;;12.63;7.60;;;9.80;93.10;;;;;;5058338;28;20024;-73
2022/12/20 13:04:54;;;;;;;17.67;9.98;;;9.90;92.90;;;;;;5056582;28;20024;-73
2022/12/20 13:07:30;;;;;;;12.00;6.35;;;9.80;92.40;;;;;;5057503;28;20031;-73
2022/12/20 13:09:57;;;;;;;18.70;8.95;;;9.80;92.30;;;;;;5058812;28;20025;-73
2022/12/20 13:12:34;;;;;;;9.75;5.03;;;9.80;92.60;;;;;;5055086;28;20049;-73
2022/12/20 13:15:21;;;;;;;18.30;10.10;;;9.70;92.30;;;;;;5074400;28;20029;-73